Akogare — JPDL — position and weather

sailwx.info

Track history (hours):
 
Tides and Currents Weather Stations Pressure Air Temp Water Temp Dewpoint Dewpoint Depression Visibility Wind Speed Wind Dir Waves Ship Positions

Akogare (Japan)

Ship's website: http://www.akogare.or.jp/eng/top.html

Last reported at 2019-Dec-31 00:59 UTC. Time now 2020-Jan-21 23:06 UTC.
Position N 35°10' E 139°24'.
Warning: this ship's position is 21 days out of date.

Length 52 m; draft 4.5 m.

Type: Sailing vessel. MMSI: 431005001.

Date/timePositionNaut miles runAvg speedWind from/ knotsBaromVisibWave heightAir tempDewpointWater temp
2019-Dec-31 00:59N 35°10' E 139°24'10 0.6
2019-Dec-30 06:55N 35°14' E 139°13'1 0.8
2019-Dec-30 05:30N 35°13' E 139°12'1 1.0
2019-Dec-30 04:48N 35°13' E 139°12'27 1.1
2019-Dec-29 03:00N 35°27' E 139°40'2 3.1
2019-Dec-29 02:30N 35°28' E 139°39'1 0.4
2019-Dec-29 00:58N 35°27' E 139°39'0 0.0
2019-Dec-29 00:28N 35°27' E 139°39'0 0.0
2019-Dec-28 23:28N 35°27' E 139°39'0 0.0
2019-Dec-28 22:28N 35°27' E 139°39'0 0.0
2019-Dec-28 19:58N 35°27' E 139°39'0 0.0
2019-Dec-28 18:28N 35°27' E 139°39'0 0.0
2019-Dec-28 17:58N 35°27' E 139°39'0 0.0
2019-Dec-28 17:28N 35°27' E 139°39'0 0.0
2019-Dec-28 16:28N 35°27' E 139°39'0 0.0
2019-Dec-28 15:58N 35°27' E 139°39'0 0.0
2019-Dec-28 14:58N 35°27' E 139°39'0 0.0
2019-Dec-28 12:58N 35°27' E 139°39'0 0.0
2019-Dec-28 11:28N 35°27' E 139°39'0 0.0
2019-Dec-28 07:28N 35°27' E 139°39'0 0.0
2019-Dec-28 03:58N 35°27' E 139°39'0 0.0
2019-Dec-28 01:58N 35°27' E 139°39'0 0.1
2019-Dec-28 01:28N 35°27' E 139°39'0 0.1
2019-Dec-28 00:58N 35°27' E 139°39'0 0.0
2019-Dec-27 23:28N 35°27' E 139°39'0 0.0
2019-Dec-27 20:28N 35°27' E 139°39'0 0.0
2019-Dec-27 19:28N 35°27' E 139°39'0 0.0
2019-Dec-27 18:58N 35°27' E 139°39'0 0.0
2019-Dec-27 16:28N 35°27' E 139°39'0 0.0
2019-Dec-27 15:28N 35°27' E 139°39'0 0.0
2019-Dec-27 14:28N 35°27' E 139°39'0 0.0
2019-Dec-27 12:28N 35°27' E 139°39'0 0.1
2019-Dec-27 11:58N 35°27' E 139°39'0 0.0
2019-Dec-27 06:58N 35°27' E 139°39'0 0.0
2019-Dec-27 04:28N 35°27' E 139°39'0 0.1
2019-Dec-27 03:58N 35°27' E 139°39'0 0.0
2019-Dec-27 03:28N 35°27' E 139°39'0 0.0
2019-Dec-26 23:28N 35°27' E 139°39'0 0.0
2019-Dec-26 20:58N 35°27' E 139°39'0 0.0
2019-Dec-26 18:58N 35°27' E 139°39'0 0.0
2019-Dec-26 17:28N 35°27' E 139°39'0 0.0
2019-Dec-26 13:58N 35°27' E 139°39'0 0.1
2019-Dec-26 13:28N 35°27' E 139°39'0 0.0
2019-Dec-26 11:28N 35°27' E 139°39'0 0.0
2019-Dec-26 10:58N 35°27' E 139°39'0 0.0
2019-Dec-26 10:28N 35°27' E 139°39'0 0.0
2019-Dec-26 08:58N 35°27' E 139°39'4 2.5
2019-Dec-26 07:30N 35°25' E 139°42'3 6.9
2019-Dec-26 07:00N 35°21' E 139°42'3 6.0
2019-Dec-26 06:30N 35°19' E 139°40'1 0.1
2019-Dec-26 00:03N 35°19' E 139°39'0 0.0
2019-Dec-25 16:06N 35°19' E 139°39'0 0.0
2019-Dec-25 11:42N 35°19' E 139°39'0 0.0
2019-Dec-25 01:45N 35°19' E 139°39'0 0.0
2019-Dec-24 19:30N 35°19' E 139°39'0 0.0
2019-Dec-24 00:00N 35°19' E 139°39'0 0.4
2019-Dec-23 23:30N 35°19' E 139°39'8 4.2
2019-Dec-23 21:30N 35°27' E 139°39'0 0.0
2019-Dec-23 18:29N 35°27' E 139°39'0 0.0
2019-Dec-23 16:29N 35°27' E 139°39'0 0.0
2019-Dec-23 15:59N 35°27' E 139°39'0 0.0
2019-Dec-23 14:59N 35°27' E 139°39'0 0.0
2019-Dec-23 11:59N 35°27' E 139°39'0 0.0
2019-Dec-23 10:59N 35°27' E 139°39'0 0.0
2019-Dec-23 09:59N 35°27' E 139°39'0 0.0
2019-Dec-23 08:59N 35°27' E 139°39'0 0.0
2019-Dec-23 07:29N 35°27' E 139°39'0 0.0
2019-Dec-23 05:29N 35°27' E 139°39'0 0.0
2019-Dec-23 03:29N 35°27' E 139°39'0 0.0
2019-Dec-23 01:29N 35°27' E 139°39'0 0.0
2019-Dec-22 22:30N 35°27' E 139°39'0 0.0
2019-Dec-22 22:00N 35°27' E 139°39'0 0.0
2019-Dec-22 20:30N 35°27' E 139°39'0 0.0
2019-Dec-22 18:30N 35°27' E 139°39'0 0.0
2019-Dec-22 18:00N 35°27' E 139°39'0 0.0
2019-Dec-22 17:30N 35°27' E 139°39'0 0.0
2019-Dec-22 17:00N 35°27' E 139°39'0 0.0
2019-Dec-22 16:00N 35°27' E 139°39'0 0.0
2019-Dec-22 15:30N 35°27' E 139°39'0 0.0
2019-Dec-22 12:30N 35°27' E 139°39'0 0.0
2019-Dec-22 06:00N 35°27' E 139°39'0 0.0
2019-Dec-22 05:30N 35°27' E 139°39'0 0.0
2019-Dec-22 00:29N 35°27' E 139°39'0 0.0
2019-Dec-21 19:59N 35°27' E 139°39'0 0.0
2019-Dec-21 15:59N 35°27' E 139°39'0 0.0
2019-Dec-21 11:59N 35°27' E 139°39'0 0.0
2019-Dec-21 10:59N 35°27' E 139°39'0 0.0
2019-Dec-21 10:29N 35°27' E 139°39'2 1.3
2019-Dec-21 09:00N 35°27' E 139°41'2 1.9
2019-Dec-21 08:01N 35°27' E 139°39'0 0.1
2019-Dec-21 05:01N 35°27' E 139°39'0 0.1
2019-Dec-21 02:55N 35°27' E 139°39'0 0.0
2019-Dec-21 01:58N 35°27' E 139°39'0 0.0
2019-Dec-21 01:28N 35°27' E 139°39'  
Track history (hours):
 
Tides and Currents Weather Stations Pressure Air Temp Water Temp Dewpoint Dewpoint Depression Visibility Wind Speed Wind Dir Waves Ship Positions

Akogare (Japan)

Ship's website: http://www.akogare.or.jp/eng/top.html

Last reported at 2019-Dec-31 00:59 UTC. Time now 2020-Jan-21 23:06 UTC.
Position N 35°10' E 139°24'.
Warning: this ship's position is 21 days out of date.

Length 52 m; draft 4.5 m.

Type: Sailing vessel. MMSI: 431005001.

Date/timePositionNaut miles runAvg speedWind from/ knotsBaromVisibWave heightAir tempDewpointWater temp
2019-Dec-31 00:59N 35°10' E 139°24'10 0.6
2019-Dec-30 06:55N 35°14' E 139°13'1 0.8
2019-Dec-30 05:30N 35°13' E 139°12'1 1.0
2019-Dec-30 04:48N 35°13' E 139°12'27 1.1
2019-Dec-29 03:00N 35°27' E 139°40'2 3.1
2019-Dec-29 02:30N 35°28' E 139°39'1 0.4
2019-Dec-29 00:58N 35°27' E 139°39'0 0.0
2019-Dec-29 00:28N 35°27' E 139°39'0 0.0
2019-Dec-28 23:28N 35°27' E 139°39'0 0.0
2019-Dec-28 22:28N 35°27' E 139°39'0 0.0
2019-Dec-28 19:58N 35°27' E 139°39'0 0.0
2019-Dec-28 18:28N 35°27' E 139°39'0 0.0
2019-Dec-28 17:58N 35°27' E 139°39'0 0.0
2019-Dec-28 17:28N 35°27' E 139°39'0 0.0
2019-Dec-28 16:28N 35°27' E 139°39'0 0.0
2019-Dec-28 15:58N 35°27' E 139°39'0 0.0
2019-Dec-28 14:58N 35°27' E 139°39'0 0.0
2019-Dec-28 12:58N 35°27' E 139°39'0 0.0
2019-Dec-28 11:28N 35°27' E 139°39'0 0.0
2019-Dec-28 07:28N 35°27' E 139°39'0 0.0
2019-Dec-28 03:58N 35°27' E 139°39'0 0.0
2019-Dec-28 01:58N 35°27' E 139°39'0 0.1
2019-Dec-28 01:28N 35°27' E 139°39'0 0.1
2019-Dec-28 00:58N 35°27' E 139°39'0 0.0
2019-Dec-27 23:28N 35°27' E 139°39'0 0.0
2019-Dec-27 20:28N 35°27' E 139°39'0 0.0
2019-Dec-27 19:28N 35°27' E 139°39'0 0.0
2019-Dec-27 18:58N 35°27' E 139°39'0 0.0
2019-Dec-27 16:28N 35°27' E 139°39'0 0.0
2019-Dec-27 15:28N 35°27' E 139°39'0 0.0
2019-Dec-27 14:28N 35°27' E 139°39'0 0.0
2019-Dec-27 12:28N 35°27' E 139°39'0 0.1
2019-Dec-27 11:58N 35°27' E 139°39'0 0.0
2019-Dec-27 06:58N 35°27' E 139°39'0 0.0
2019-Dec-27 04:28N 35°27' E 139°39'0 0.1
2019-Dec-27 03:58N 35°27' E 139°39'0 0.0
2019-Dec-27 03:28N 35°27' E 139°39'0 0.0
2019-Dec-26 23:28N 35°27' E 139°39'0 0.0
2019-Dec-26 20:58N 35°27' E 139°39'0 0.0
2019-Dec-26 18:58N 35°27' E 139°39'0 0.0
2019-Dec-26 17:28N 35°27' E 139°39'0 0.0
2019-Dec-26 13:58N 35°27' E 139°39'0 0.1
2019-Dec-26 13:28N 35°27' E 139°39'0 0.0
2019-Dec-26 11:28N 35°27' E 139°39'0 0.0
2019-Dec-26 10:58N 35°27' E 139°39'0 0.0
2019-Dec-26 10:28N 35°27' E 139°39'0 0.0
2019-Dec-26 08:58N 35°27' E 139°39'4 2.5
2019-Dec-26 07:30N 35°25' E 139°42'3 6.9
2019-Dec-26 07:00N 35°21' E 139°42'3 6.0
2019-Dec-26 06:30N 35°19' E 139°40'1 0.1
2019-Dec-26 00:03N 35°19' E 139°39'0 0.0
2019-Dec-25 16:06N 35°19' E 139°39'0 0.0
2019-Dec-25 11:42N 35°19' E 139°39'0 0.0
2019-Dec-25 01:45N 35°19' E 139°39'0 0.0
2019-Dec-24 19:30N 35°19' E 139°39'0 0.0
2019-Dec-24 00:00N 35°19' E 139°39'0 0.4
2019-Dec-23 23:30N 35°19' E 139°39'8 4.2
2019-Dec-23 21:30N 35°27' E 139°39'0 0.0
2019-Dec-23 18:29N 35°27' E 139°39'0 0.0
2019-Dec-23 16:29N 35°27' E 139°39'0 0.0
2019-Dec-23 15:59N 35°27' E 139°39'0 0.0
2019-Dec-23 14:59N 35°27' E 139°39'0 0.0
2019-Dec-23 11:59N 35°27' E 139°39'0 0.0
2019-Dec-23 10:59N 35°27' E 139°39'0 0.0
2019-Dec-23 09:59N 35°27' E 139°39'0 0.0
2019-Dec-23 08:59N 35°27' E 139°39'0 0.0
2019-Dec-23 07:29N 35°27' E 139°39'0 0.0
2019-Dec-23 05:29N 35°27' E 139°39'0 0.0
2019-Dec-23 03:29N 35°27' E 139°39'0 0.0
2019-Dec-23 01:29N 35°27' E 139°39'0 0.0
2019-Dec-22 22:30N 35°27' E 139°39'0 0.0
2019-Dec-22 22:00N 35°27' E 139°39'0 0.0
2019-Dec-22 20:30N 35°27' E 139°39'0 0.0
2019-Dec-22 18:30N 35°27' E 139°39'0 0.0
2019-Dec-22 18:00N 35°27' E 139°39'0 0.0
2019-Dec-22 17:30N 35°27' E 139°39'0 0.0
2019-Dec-22 17:00N 35°27' E 139°39'0 0.0
2019-Dec-22 16:00N 35°27' E 139°39'0 0.0
2019-Dec-22 15:30N 35°27' E 139°39'0 0.0
2019-Dec-22 12:30N 35°27' E 139°39'0 0.0
2019-Dec-22 06:00N 35°27' E 139°39'0 0.0
2019-Dec-22 05:30N 35°27' E 139°39'0 0.0
2019-Dec-22 00:29N 35°27' E 139°39'0 0.0
2019-Dec-21 19:59N 35°27' E 139°39'0 0.0
2019-Dec-21 15:59N 35°27' E 139°39'0 0.0
2019-Dec-21 11:59N 35°27' E 139°39'0 0.0
2019-Dec-21 10:59N 35°27' E 139°39'0 0.0
2019-Dec-21 10:29N 35°27' E 139°39'2 1.3
2019-Dec-21 09:00N 35°27' E 139°41'2 1.9
2019-Dec-21 08:01N 35°27' E 139°39'0 0.1
2019-Dec-21 05:01N 35°27' E 139°39'0 0.1
2019-Dec-21 02:55N 35°27' E 139°39'0 0.0
2019-Dec-21 01:58N 35°27' E 139°39'0 0.0
2019-Dec-21 01:28N 35°27' E 139°39'  

Dump ship's entire track history